DLH905T EDDK-LFPO
Flight info
| Callsign | DLH905T |
|---|---|
| Flight time | 0h 44m |
| Altitude | 32000 |
| Route | NVO3B NVO Y868 SOGRI UM617 CIV Y50 MATIX |
| Aircraft | A20N/M-SDE2E3FGHIRWXY/LB1 |
Departure
| Time | 2026-05-06 19:56 |
|---|---|
| Airport | Cologne Bonn Airport (EDDK) |
Arrival
| Time | 2026-05-06 20:41 |
|---|---|
| Airport | Paris-Orly Airport (LFPO) |
| Time | Latitude | Longitude | Altitude | Speed | Heading |
|---|---|---|---|---|---|
| 2026-05-06 19:20 | 50.87834 | 7.12419 | 236 ft | 0 kts | 285° |
| 2026-05-06 19:38 | 50.87830 | 7.12443 | 236 ft | 3 kts | 285° |
| 2026-05-06 19:38 | 50.87826 | 7.12472 | 236 ft | 3 kts | 292° |
| 2026-05-06 19:39 | 50.87819 | 7.12499 | 236 ft | 3 kts | 292° |
| 2026-05-06 19:39 | 50.87811 | 7.12524 | 236 ft | 3 kts | 312° |
| 2026-05-06 19:39 | 50.87799 | 7.12545 | 237 ft | 3 kts | 321° |
| 2026-05-06 19:39 | 50.87783 | 7.12556 | 237 ft | 3 kts | 0° |
| 2026-05-06 19:40 | 50.87766 | 7.12550 | 237 ft | 2 kts | 20° |
| 2026-05-06 19:40 | 50.87750 | 7.12541 | 237 ft | 2 kts | 20° |
| 2026-05-06 19:40 | 50.87734 | 7.12532 | 236 ft | 2 kts | 20° |
| 2026-05-06 19:40 | 50.87718 | 7.12523 | 236 ft | 2 kts | 20° |
| 2026-05-06 19:41 | 50.87714 | 7.12521 | 236 ft | 0 kts | 20° |
| 2026-05-06 19:43 | 50.87730 | 7.12531 | 236 ft | 5 kts | 24° |
| 2026-05-06 19:43 | 50.87757 | 7.12574 | 237 ft | 6 kts | 65° |
| 2026-05-06 19:44 | 50.87768 | 7.12645 | 239 ft | 7 kts | 88° |
| 2026-05-06 19:44 | 50.87743 | 7.12735 | 242 ft | 8 kts | 135° |
| 2026-05-06 19:44 | 50.87695 | 7.12808 | 243 ft | 12 kts | 136° |
| 2026-05-06 19:44 | 50.87651 | 7.12872 | 244 ft | 14 kts | 138° |
| 2026-05-06 19:45 | 50.87581 | 7.12971 | 248 ft | 13 kts | 137° |
| 2026-05-06 19:45 | 50.87504 | 7.13082 | 248 ft | 19 kts | 137° |
| 2026-05-06 19:45 | 50.87387 | 7.13252 | 250 ft | 27 kts | 137° |
| 2026-05-06 19:45 | 50.87251 | 7.13447 | 253 ft | 25 kts | 137° |
| 2026-05-06 19:46 | 50.87133 | 7.13617 | 258 ft | 20 kts | 136° |
| 2026-05-06 19:46 | 50.87039 | 7.13754 | 263 ft | 17 kts | 136° |
| 2026-05-06 19:46 | 50.86954 | 7.13878 | 267 ft | 17 kts | 136° |
| 2026-05-06 19:46 | 50.86862 | 7.14011 | 267 ft | 17 kts | 139° |
| 2026-05-06 19:47 | 50.86733 | 7.14140 | 268 ft | 13 kts | 158° |
| 2026-05-06 19:47 | 50.86710 | 7.14168 | 267 ft | 0 kts | 136° |
| 2026-05-06 19:49 | 50.86700 | 7.14183 | 267 ft | 6 kts | 136° |
| 2026-05-06 19:50 | 50.86650 | 7.14259 | 267 ft | 13 kts | 136° |
| 2026-05-06 19:50 | 50.86571 | 7.14375 | 269 ft | 18 kts | 138° |
| 2026-05-06 19:50 | 50.86469 | 7.14521 | 272 ft | 21 kts | 137° |
| 2026-05-06 19:50 | 50.86360 | 7.14680 | 276 ft | 23 kts | 137° |
| 2026-05-06 19:51 | 50.86240 | 7.14853 | 280 ft | 23 kts | 137° |
| 2026-05-06 19:51 | 50.86125 | 7.15019 | 282 ft | 22 kts | 137° |
| 2026-05-06 19:51 | 50.86018 | 7.15175 | 284 ft | 20 kts | 138° |
| 2026-05-06 19:51 | 50.85919 | 7.15316 | 288 ft | 17 kts | 136° |
| 2026-05-06 19:52 | 50.85835 | 7.15441 | 293 ft | 17 kts | 137° |
| 2026-05-06 19:52 | 50.85751 | 7.15563 | 297 ft | 17 kts | 137° |
| 2026-05-06 19:52 | 50.85654 | 7.15701 | 297 ft | 22 kts | 138° |
| 2026-05-06 19:52 | 50.85531 | 7.15879 | 300 ft | 24 kts | 137° |
| 2026-05-06 19:53 | 50.85413 | 7.16047 | 304 ft | 21 kts | 138° |
| 2026-05-06 19:53 | 50.85350 | 7.16178 | 309 ft | 12 kts | 112° |
| 2026-05-06 19:53 | 50.85338 | 7.16279 | 312 ft | 7 kts | 90° |
| 2026-05-06 19:53 | 50.85343 | 7.16335 | 312 ft | 4 kts | 76° |
| 2026-05-06 19:54 | 50.85348 | 7.16363 | 313 ft | 2 kts | 68° |
| 2026-05-06 19:54 | 50.85364 | 7.16408 | 313 ft | 9 kts | 56° |
| 2026-05-06 19:54 | 50.85419 | 7.16487 | 316 ft | 10 kts | 28° |
| 2026-05-06 19:54 | 50.85479 | 7.16512 | 317 ft | 9 kts | 9° |
| 2026-05-06 19:55 | 50.85550 | 7.16516 | 313 ft | 11 kts | 332° |
| 2026-05-06 19:55 | 50.85575 | 7.16484 | 297 ft | 0 kts | 316° |
| 2026-05-06 19:55 | 50.85582 | 7.16473 | 316 ft | 6 kts | 317° |
| 2026-05-06 19:56 | 50.85745 | 7.16239 | 308 ft | 68 kts | 317° |
| 2026-05-06 19:56 | 50.86303 | 7.15434 | 284 ft | 150 kts | 317° |
| 2026-05-06 19:56 | 50.87169 | 7.14185 | 764 ft | 173 kts | 318° |
| 2026-05-06 19:56 | 50.88030 | 7.12943 | 1897 ft | 163 kts | 319° |
| 2026-05-06 19:57 | 50.88894 | 7.11698 | 2639 ft | 177 kts | 320° |
| 2026-05-06 19:57 | 50.89849 | 7.10333 | 3255 ft | 190 kts | 319° |
| 2026-05-06 19:57 | 50.90794 | 7.08825 | 4025 ft | 195 kts | 308° |
| 2026-05-06 19:57 | 50.91302 | 7.06829 | 4686 ft | 201 kts | 277° |
| 2026-05-06 19:58 | 50.91106 | 7.04616 | 5090 ft | 212 kts | 257° |
| 2026-05-06 19:58 | 50.90642 | 7.02372 | 5195 ft | 215 kts | 253° |
| 2026-05-06 19:58 | 50.90136 | 7.00151 | 5050 ft | 216 kts | 253° |
| 2026-05-06 19:58 | 50.89629 | 6.97901 | 5025 ft | 217 kts | 253° |
| 2026-05-06 19:59 | 50.89132 | 6.95648 | 5014 ft | 216 kts | 253° |
| 2026-05-06 19:59 | 50.88641 | 6.93385 | 5035 ft | 222 kts | 254° |
| 2026-05-06 19:59 | 50.88106 | 6.90867 | 4883 ft | 259 kts | 254° |
| 2026-05-06 19:59 | 50.87517 | 6.88103 | 4852 ft | 268 kts | 253° |
| 2026-05-06 20:00 | 50.86916 | 6.85298 | 4950 ft | 271 kts | 253° |
| 2026-05-06 20:00 | 50.86304 | 6.82448 | 5555 ft | 275 kts | 253° |
| 2026-05-06 20:00 | 50.85689 | 6.79579 | 6575 ft | 275 kts | 254° |
| 2026-05-06 20:00 | 50.85072 | 6.76701 | 7490 ft | 278 kts | 254° |
| 2026-05-06 20:01 | 50.84443 | 6.73769 | 8351 ft | 283 kts | 254° |
| 2026-05-06 20:01 | 50.83805 | 6.70795 | 9227 ft | 288 kts | 253° |
| 2026-05-06 20:01 | 50.83155 | 6.67768 | 10087 ft | 293 kts | 253° |
| 2026-05-06 20:01 | 50.82476 | 6.64616 | 10552 ft | 313 kts | 253° |
| 2026-05-06 20:02 | 50.81718 | 6.61308 | 10908 ft | 334 kts | 251° |
| 2026-05-06 20:02 | 50.80867 | 6.57826 | 11601 ft | 343 kts | 250° |
| 2026-05-06 20:02 | 50.79979 | 6.54308 | 12486 ft | 346 kts | 250° |
| 2026-05-06 20:02 | 50.79073 | 6.50765 | 13409 ft | 349 kts | 250° |
| 2026-05-06 20:03 | 50.78160 | 6.47195 | 14252 ft | 352 kts | 250° |
| 2026-05-06 20:03 | 50.77242 | 6.43599 | 15037 ft | 355 kts | 250° |
| 2026-05-06 20:03 | 50.76372 | 6.40182 | 15788 ft | 357 kts | 249° |
| 2026-05-06 20:03 | 50.75443 | 6.36518 | 16572 ft | 361 kts | 249° |
| 2026-05-06 20:04 | 50.74507 | 6.32829 | 17346 ft | 364 kts | 249° |
| 2026-05-06 20:04 | 50.73706 | 6.29034 | 18096 ft | 367 kts | 254° |
| 2026-05-06 20:04 | 50.73014 | 6.25136 | 18739 ft | 370 kts | 255° |
| 2026-05-06 20:04 | 50.72364 | 6.21182 | 19336 ft | 375 kts | 256° |
| 2026-05-06 20:05 | 50.71737 | 6.17162 | 19935 ft | 379 kts | 257° |
| 2026-05-06 20:05 | 50.71120 | 6.13109 | 20546 ft | 382 kts | 257° |
| 2026-05-06 20:05 | 50.70499 | 6.09001 | 21130 ft | 387 kts | 257° |
| 2026-05-06 20:05 | 50.69870 | 6.04852 | 21698 ft | 391 kts | 256° |
| 2026-05-06 20:06 | 50.69231 | 6.00664 | 22255 ft | 395 kts | 256° |
| 2026-05-06 20:06 | 50.68579 | 5.96422 | 22800 ft | 400 kts | 256° |
| 2026-05-06 20:06 | 50.67918 | 5.92146 | 23335 ft | 403 kts | 256° |
| 2026-05-06 20:06 | 50.67249 | 5.87845 | 23801 ft | 407 kts | 256° |
| 2026-05-06 20:07 | 50.66575 | 5.83528 | 24274 ft | 409 kts | 256° |
| 2026-05-06 20:07 | 50.65885 | 5.79116 | 24766 ft | 411 kts | 256° |
| 2026-05-06 20:07 | 50.65206 | 5.74788 | 25231 ft | 413 kts | 255° |
| 2026-05-06 20:07 | 50.64505 | 5.70333 | 25685 ft | 415 kts | 255° |
| 2026-05-06 20:08 | 50.63817 | 5.65969 | 26110 ft | 417 kts | 255° |
| 2026-05-06 20:08 | 50.63113 | 5.61516 | 26523 ft | 420 kts | 255° |
| 2026-05-06 20:08 | 50.62408 | 5.57066 | 26935 ft | 422 kts | 255° |
| 2026-05-06 20:08 | 50.61703 | 5.52629 | 27336 ft | 424 kts | 255° |
| 2026-05-06 20:09 | 50.60984 | 5.48116 | 27729 ft | 427 kts | 255° |
| 2026-05-06 20:09 | 50.60274 | 5.43673 | 28114 ft | 429 kts | 255° |
| 2026-05-06 20:09 | 50.59529 | 5.39020 | 28504 ft | 431 kts | 255° |
| 2026-05-06 20:09 | 50.58794 | 5.34441 | 28858 ft | 433 kts | 255° |
| 2026-05-06 20:10 | 50.58056 | 5.29854 | 29220 ft | 436 kts | 255° |
| 2026-05-06 20:10 | 50.57307 | 5.25219 | 29564 ft | 438 kts | 255° |
| 2026-05-06 20:10 | 50.56567 | 5.20650 | 29876 ft | 440 kts | 255° |
| 2026-05-06 20:10 | 50.55816 | 5.16024 | 29933 ft | 429 kts | 255° |
| 2026-05-06 20:11 | 50.54365 | 5.07127 | 30036 ft | 418 kts | 255° |
| 2026-05-06 20:11 | 50.53636 | 5.02674 | 30189 ft | 424 kts | 255° |
| 2026-05-06 20:11 | 50.52898 | 4.98188 | 30300 ft | 431 kts | 255° |
| 2026-05-06 20:12 | 50.52138 | 4.93573 | 30436 ft | 436 kts | 255° |
| 2026-05-06 20:12 | 50.51381 | 4.88987 | 30681 ft | 439 kts | 255° |
| 2026-05-06 20:12 | 50.50614 | 4.84353 | 31042 ft | 439 kts | 255° |
| 2026-05-06 20:12 | 50.49845 | 4.79718 | 31425 ft | 438 kts | 255° |
| 2026-05-06 20:13 | 50.49076 | 4.75096 | 31788 ft | 437 kts | 255° |
| 2026-05-06 20:13 | 50.48306 | 4.70482 | 31925 ft | 434 kts | 255° |
| 2026-05-06 20:13 | 50.46801 | 4.61495 | 31937 ft | 421 kts | 255° |
| 2026-05-06 20:14 | 50.45304 | 4.52609 | 31937 ft | 421 kts | 255° |
| 2026-05-06 20:14 | 50.43810 | 4.43783 | 31937 ft | 421 kts | 255° |
| 2026-05-06 20:15 | 50.42299 | 4.34908 | 31938 ft | 421 kts | 255° |
| 2026-05-06 20:15 | 50.40782 | 4.26035 | 31938 ft | 421 kts | 255° |
| 2026-05-06 20:16 | 50.38655 | 4.17671 | 31937 ft | 420 kts | 232° |
| 2026-05-06 20:16 | 50.34584 | 4.11038 | 31936 ft | 435 kts | 219° |
| 2026-05-06 20:17 | 50.29338 | 4.06157 | 31932 ft | 441 kts | 207° |
| 2026-05-06 20:17 | 50.24020 | 4.02093 | 31934 ft | 434 kts | 206° |
| 2026-05-06 20:18 | 50.18658 | 3.98052 | 31936 ft | 424 kts | 206° |
| 2026-05-06 20:18 | 50.13332 | 3.94100 | 31939 ft | 424 kts | 203° |
| 2026-05-06 20:19 | 50.07697 | 3.91542 | 31938 ft | 426 kts | 196° |
| 2026-05-06 20:19 | 50.02245 | 3.87812 | 31663 ft | 439 kts | 213° |
| 2026-05-06 20:20 | 49.99699 | 3.85129 | 31410 ft | 442 kts | 216° |
| 2026-05-06 20:20 | 49.97198 | 3.82365 | 31144 ft | 442 kts | 216° |
| 2026-05-06 20:20 | 49.94697 | 3.79578 | 30889 ft | 441 kts | 216° |
| 2026-05-06 20:20 | 49.92223 | 3.76826 | 30638 ft | 439 kts | 216° |
| 2026-05-06 20:21 | 49.89770 | 3.74101 | 30391 ft | 437 kts | 216° |
| 2026-05-06 20:21 | 49.87295 | 3.71358 | 30146 ft | 435 kts | 216° |
| 2026-05-06 20:21 | 49.84844 | 3.68645 | 29879 ft | 433 kts | 216° |
| 2026-05-06 20:21 | 49.82397 | 3.65943 | 29587 ft | 431 kts | 216° |
| 2026-05-06 20:22 | 49.79990 | 3.63287 | 29312 ft | 429 kts | 216° |
| 2026-05-06 20:22 | 49.77566 | 3.60618 | 29032 ft | 427 kts | 216° |
| 2026-05-06 20:22 | 49.75147 | 3.57956 | 28747 ft | 426 kts | 216° |
| 2026-05-06 20:22 | 49.72738 | 3.55309 | 28463 ft | 424 kts | 216° |
| 2026-05-06 20:23 | 49.70340 | 3.52676 | 28194 ft | 422 kts | 216° |
| 2026-05-06 20:23 | 49.67946 | 3.50052 | 27922 ft | 421 kts | 216° |
| 2026-05-06 20:23 | 49.65563 | 3.47444 | 27651 ft | 419 kts | 216° |
| 2026-05-06 20:23 | 49.63192 | 3.44852 | 27391 ft | 417 kts | 216° |
| 2026-05-06 20:24 | 49.60867 | 3.42312 | 27126 ft | 416 kts | 216° |
| 2026-05-06 20:24 | 49.58528 | 3.39761 | 26860 ft | 414 kts | 216° |
| 2026-05-06 20:24 | 49.56154 | 3.37174 | 26595 ft | 413 kts | 216° |
| 2026-05-06 20:24 | 49.53822 | 3.34637 | 26342 ft | 411 kts | 216° |
| 2026-05-06 20:25 | 49.51477 | 3.32089 | 26089 ft | 410 kts | 216° |
| 2026-05-06 20:25 | 49.49161 | 3.29574 | 25836 ft | 408 kts | 216° |
| 2026-05-06 20:25 | 49.46848 | 3.27066 | 25584 ft | 407 kts | 216° |
| 2026-05-06 20:25 | 49.44529 | 3.24554 | 25331 ft | 406 kts | 216° |
| 2026-05-06 20:26 | 49.42230 | 3.22067 | 25084 ft | 404 kts | 216° |
| 2026-05-06 20:26 | 49.39961 | 3.19616 | 24835 ft | 403 kts | 215° |
| 2026-05-06 20:26 | 49.37678 | 3.17152 | 24595 ft | 401 kts | 215° |
| 2026-05-06 20:26 | 49.35400 | 3.14696 | 24352 ft | 400 kts | 215° |
| 2026-05-06 20:27 | 49.33158 | 3.12282 | 24119 ft | 399 kts | 215° |
| 2026-05-06 20:27 | 49.30886 | 3.09838 | 23886 ft | 397 kts | 215° |
| 2026-05-06 20:27 | 49.28627 | 3.07412 | 23648 ft | 396 kts | 215° |
| 2026-05-06 20:27 | 49.26383 | 3.05003 | 23390 ft | 395 kts | 215° |
| 2026-05-06 20:28 | 49.24135 | 3.02594 | 23114 ft | 393 kts | 215° |
| 2026-05-06 20:28 | 49.21899 | 3.00200 | 22843 ft | 392 kts | 215° |
| 2026-05-06 20:28 | 49.19671 | 2.97818 | 22567 ft | 390 kts | 215° |
| 2026-05-06 20:28 | 49.17455 | 2.95450 | 22299 ft | 388 kts | 215° |
| 2026-05-06 20:29 | 49.16119 | 2.94025 | 22134 ft | 387 kts | 215° |
| 2026-05-06 20:29 | 49.15475 | 2.93338 | 22055 ft | 387 kts | 215° |
| 2026-05-06 20:30 | 49.13794 | 2.91545 | 21848 ft | 385 kts | 215° |
| 2026-05-06 20:30 | 49.09414 | 2.86883 | 21328 ft | 382 kts | 215° |
| 2026-05-06 20:30 | 49.07235 | 2.84567 | 20981 ft | 381 kts | 215° |
| 2026-05-06 20:31 | 49.05093 | 2.82291 | 20598 ft | 379 kts | 216° |
| 2026-05-06 20:31 | 49.03022 | 2.79855 | 20119 ft | 375 kts | 219° |
| 2026-05-06 20:31 | 49.01004 | 2.77374 | 19539 ft | 370 kts | 220° |
| 2026-05-06 20:31 | 48.99030 | 2.74917 | 18932 ft | 362 kts | 220° |
| 2026-05-06 20:32 | 48.97111 | 2.72515 | 18340 ft | 354 kts | 220° |
| 2026-05-06 20:32 | 48.95331 | 2.70280 | 17705 ft | 347 kts | 220° |
| 2026-05-06 20:32 | 48.93525 | 2.68010 | 17085 ft | 341 kts | 220° |
| 2026-05-06 20:32 | 48.91736 | 2.65762 | 16756 ft | 326 kts | 220° |
| 2026-05-06 20:33 | 48.90012 | 2.63597 | 16304 ft | 316 kts | 220° |
| 2026-05-06 20:33 | 48.88353 | 2.61516 | 15842 ft | 303 kts | 221° |
| 2026-05-06 20:33 | 48.86759 | 2.59516 | 15370 ft | 293 kts | 221° |
| 2026-05-06 20:33 | 48.85212 | 2.57575 | 14878 ft | 284 kts | 221° |
| 2026-05-06 20:34 | 48.83730 | 2.55718 | 14401 ft | 277 kts | 221° |
| 2026-05-06 20:34 | 48.82260 | 2.53878 | 13957 ft | 269 kts | 221° |
| 2026-05-06 20:34 | 48.80839 | 2.52100 | 13573 ft | 260 kts | 221° |
| 2026-05-06 20:34 | 48.79474 | 2.50394 | 13180 ft | 251 kts | 221° |
| 2026-05-06 20:35 | 48.78119 | 2.48700 | 12533 ft | 254 kts | 221° |
| 2026-05-06 20:35 | 48.76770 | 2.47014 | 11875 ft | 249 kts | 221° |
| 2026-05-06 20:35 | 48.75444 | 2.45359 | 11240 ft | 244 kts | 220° |
| 2026-05-06 20:35 | 48.74148 | 2.43743 | 10632 ft | 239 kts | 220° |
| 2026-05-06 20:36 | 48.72850 | 2.42207 | 10027 ft | 235 kts | 211° |
| 2026-05-06 20:36 | 48.71314 | 2.41578 | 9481 ft | 227 kts | 179° |
| 2026-05-06 20:36 | 48.69802 | 2.41905 | 9041 ft | 218 kts | 167° |
| 2026-05-06 20:36 | 48.68364 | 2.42414 | 8724 ft | 203 kts | 170° |
| 2026-05-06 20:37 | 48.67024 | 2.42228 | 8200 ft | 197 kts | 205° |
| 2026-05-06 20:37 | 48.66016 | 2.40870 | 7515 ft | 199 kts | 242° |
| 2026-05-06 20:37 | 48.65476 | 2.39024 | 7243 ft | 182 kts | 250° |
| 2026-05-06 20:37 | 48.64906 | 2.37404 | 6967 ft | 169 kts | 225° |
| 2026-05-06 20:38 | 48.63895 | 2.36654 | 6577 ft | 165 kts | 186° |
| 2026-05-06 20:38 | 48.62793 | 2.37134 | 5944 ft | 173 kts | 142° |
| 2026-05-06 20:38 | 48.62174 | 2.38688 | 5309 ft | 179 kts | 99° |
| 2026-05-06 20:38 | 48.62398 | 2.40512 | 4673 ft | 181 kts | 57° |
| 2026-05-06 20:39 | 48.63363 | 2.41677 | 4028 ft | 181 kts | 16° |
| 2026-05-06 20:39 | 48.64577 | 2.41765 | 3393 ft | 180 kts | 347° |
| 2026-05-06 20:39 | 48.65717 | 2.40993 | 2761 ft | 181 kts | 327° |
| 2026-05-06 20:39 | 48.66702 | 2.39826 | 2162 ft | 178 kts | 321° |
| 2026-05-06 20:40 | 48.67632 | 2.38628 | 1629 ft | 173 kts | 321° |
| 2026-05-06 20:40 | 48.68525 | 2.37482 | 1291 ft | 160 kts | 323° |
| 2026-05-06 20:40 | 48.69518 | 2.37057 | 1041 ft | 144 kts | 359° |
| 2026-05-06 20:40 | 48.70491 | 2.37188 | 746 ft | 140 kts | 7° |
| 2026-05-06 20:41 | 48.71419 | 2.37505 | 425 ft | 135 kts | 14° |
| 2026-05-06 20:41 | 48.72265 | 2.37924 | 301 ft | 114 kts | 17° |
| 2026-05-06 20:41 | 48.72747 | 2.38167 | 302 ft | 33 kts | 18° |
| 2026-05-06 20:41 | 48.72921 | 2.38253 | 298 ft | 26 kts | 19° |
| 2026-05-06 20:42 | 48.73097 | 2.38340 | 302 ft | 27 kts | 17° |
| 2026-05-06 20:42 | 48.73283 | 2.38432 | 303 ft | 27 kts | 20° |
| 2026-05-06 20:42 | 48.73362 | 2.38382 | 300 ft | 8 kts | 270° |
| 2026-05-06 20:42 | 48.73345 | 2.38289 | 301 ft | 11 kts | 252° |
| 2026-05-06 20:43 | 48.73318 | 2.38169 | 301 ft | 12 kts | 233° |
| 2026-05-06 20:43 | 48.73299 | 2.38046 | 300 ft | 13 kts | 259° |
| 2026-05-06 20:43 | 48.73224 | 2.37975 | 302 ft | 15 kts | 200° |
| 2026-05-06 20:43 | 48.73120 | 2.37920 | 301 ft | 17 kts | 199° |
| 2026-05-06 20:44 | 48.73009 | 2.37871 | 300 ft | 16 kts | 195° |
| 2026-05-06 20:44 | 48.72946 | 2.37781 | 303 ft | 10 kts | 240° |
| 2026-05-06 20:44 | 48.72902 | 2.37724 | 299 ft | 8 kts | 222° |
| 2026-05-06 20:44 | 48.72894 | 2.37662 | 300 ft | 5 kts | 312° |
| 2026-05-06 20:45 | 48.72919 | 2.37623 | 302 ft | 4 kts | 315° |
| 2026-05-06 20:45 | 48.72928 | 2.37609 | 299 ft | 0 kts | 315° |